sensor_id;sensor_type;location;lat;lon;timestamp;temperature;humidity
15241;DHT22;7723;52.170;9.978;2024-02-26T00:00:42;1.00;99.90
15241;DHT22;7723;52.170;9.978;2024-02-26T00:03:09;0.90;99.90
15241;DHT22;7723;52.170;9.978;2024-02-26T00:05:36;1.00;99.90
15241;DHT22;7723;52.170;9.978;2024-02-26T00:08:06;1.00;99.90
15241;DHT22;7723;52.170;9.978;2024-02-26T00:10:33;1.00;99.90
15241;DHT22;7723;52.170;9.978;2024-02-26T00:13:00;1.00;99.90
15241;DHT22;7723;52.170;9.978;2024-02-26T00:15:27;1.00;99.90
15241;DHT22;7723;52.170;9.978;2024-02-26T00:17:54;1.00;99.90
15241;DHT22;7723;52.170;9.978;2024-02-26T00:20:21;1.10;99.90
15241;DHT22;7723;52.170;9.978;2024-02-26T00:22:48;1.00;99.90
15241;DHT22;7723;52.170;9.978;2024-02-26T00:25:17;0.90;99.90
15241;DHT22;7723;52.170;9.978;2024-02-26T00:27:44;0.80;99.90
15241;DHT22;7723;52.170;9.978;2024-02-26T00:30:11;0.90;99.90
15241;DHT22;7723;52.170;9.978;2024-02-26T00:32:38;0.90;99.90
15241;DHT22;7723;52.170;9.978;2024-02-26T00:35:06;0.90;99.90
15241;DHT22;7723;52.170;9.978;2024-02-26T00:37:35;0.90;99.90
15241;DHT22;7723;52.170;9.978;2024-02-26T00:40:02;0.90;99.90
15241;DHT22;7723;52.170;9.978;2024-02-26T00:42:30;0.90;99.90
15241;DHT22;7723;52.170;9.978;2024-02-26T00:44:58;0.90;99.90
15241;DHT22;7723;52.170;9.978;2024-02-26T00:47:25;0.90;99.90
15241;DHT22;7723;52.170;9.978;2024-02-26T00:49:52;1.00;99.90
15241;DHT22;7723;52.170;9.978;2024-02-26T00:52:20;0.90;99.90
15241;DHT22;7723;52.170;9.978;2024-02-26T00:54:47;0.90;99.90
15241;DHT22;7723;52.170;9.978;2024-02-26T00:57:14;0.80;99.90
15241;DHT22;7723;52.170;9.978;2024-02-26T00:59:42;0.90;99.90
15241;DHT22;7723;52.170;9.978;2024-02-26T01:02:09;0.90;99.90
15241;DHT22;7723;52.170;9.978;2024-02-26T01:04:36;0.90;99.90
15241;DHT22;7723;52.170;9.978;2024-02-26T01:07:03;0.90;99.90
15241;DHT22;7723;52.170;9.978;2024-02-26T01:09:31;0.90;99.90
15241;DHT22;7723;52.170;9.978;2024-02-26T01:11:58;1.00;99.90
15241;DHT22;7723;52.170;9.978;2024-02-26T01:14:26;1.00;99.90
15241;DHT22;7723;52.170;9.978;2024-02-26T01:16:54;1.10;99.90
15241;DHT22;7723;52.170;9.978;2024-02-26T01:19:21;1.10;99.90
15241;DHT22;7723;52.170;9.978;2024-02-26T01:21:48;1.10;99.90
15241;DHT22;7723;52.170;9.978;2024-02-26T01:24:16;1.10;99.90
15241;DHT22;7723;52.170;9.978;2024-02-26T01:26:43;1.20;99.90
15241;DHT22;7723;52.170;9.978;2024-02-26T01:29:10;1.10;99.90
15241;DHT22;7723;52.170;9.978;2024-02-26T01:31:37;1.10;99.90
15241;DHT22;7723;52.170;9.978;2024-02-26T01:34:06;1.10;99.90
15241;DHT22;7723;52.170;9.978;2024-02-26T01:36:33;1.20;99.90
15241;DHT22;7723;52.170;9.978;2024-02-26T01:39:00;1.20;99.90
15241;DHT22;7723;52.170;9.978;2024-02-26T01:41:29;1.20;99.90
15241;DHT22;7723;52.170;9.978;2024-02-26T01:43:57;1.10;99.90
15241;DHT22;7723;52.170;9.978;2024-02-26T01:46:24;1.10;99.90
15241;DHT22;7723;52.170;9.978;2024-02-26T01:48:52;1.30;99.90
15241;DHT22;7723;52.170;9.978;2024-02-26T01:51:20;1.10;99.90
15241;DHT22;7723;52.170;9.978;2024-02-26T01:53:48;1.10;99.90
15241;DHT22;7723;52.170;9.978;2024-02-26T01:56:16;1.00;99.90
15241;DHT22;7723;52.170;9.978;2024-02-26T01:58:45;1.00;99.90
15241;DHT22;7723;52.170;9.978;2024-02-26T02:01:13;1.00;99.90
15241;DHT22;7723;52.170;9.978;2024-02-26T02:03:42;1.10;99.90
15241;DHT22;7723;52.170;9.978;2024-02-26T02:06:09;1.20;99.90
15241;DHT22;7723;52.170;9.978;2024-02-26T02:08:38;1.30;99.90
15241;DHT22;7723;52.170;9.978;2024-02-26T02:11:06;1.40;99.90
15241;DHT22;7723;52.170;9.978;2024-02-26T02:13:35;1.30;99.90
15241;DHT22;7723;52.170;9.978;2024-02-26T02:16:03;1.20;99.90
15241;DHT22;7723;52.170;9.978;2024-02-26T02:18:30;1.10;99.90
15241;DHT22;7723;52.170;9.978;2024-02-26T02:21:00;1.10;99.90
15241;DHT22;7723;52.170;9.978;2024-02-26T02:23:27;1.10;99.90
15241;DHT22;7723;52.170;9.978;2024-02-26T02:25:54;1.10;99.90
15241;DHT22;7723;52.170;9.978;2024-02-26T02:28:23;1.00;99.90
15241;DHT22;7723;52.170;9.978;2024-02-26T02:30:51;1.00;99.90
15241;DHT22;7723;52.170;9.978;2024-02-26T02:33:19;1.00;99.90
15241;DHT22;7723;52.170;9.978;2024-02-26T02:35:46;1.00;99.90
15241;DHT22;7723;52.170;9.978;2024-02-26T02:38:14;1.00;99.90
15241;DHT22;7723;52.170;9.978;2024-02-26T02:40:42;1.10;99.90
15241;DHT22;7723;52.170;9.978;2024-02-26T02:43:09;1.20;99.90
15241;DHT22;7723;52.170;9.978;2024-02-26T02:45:36;1.20;99.90
15241;DHT22;7723;52.170;9.978;2024-02-26T02:48:03;1.20;99.90
15241;DHT22;7723;52.170;9.978;2024-02-26T02:50:31;1.10;99.90
15241;DHT22;7723;52.170;9.978;2024-02-26T02:52:58;1.20;99.90
15241;DHT22;7723;52.170;9.978;2024-02-26T02:55:27;1.20;99.90
15241;DHT22;7723;52.170;9.978;2024-02-26T02:57:54;1.20;99.90
15241;DHT22;7723;52.170;9.978;2024-02-26T03:00:21;1.20;99.90
15241;DHT22;7723;52.170;9.978;2024-02-26T03:02:49;1.10;99.90
15241;DHT22;7723;52.170;9.978;2024-02-26T03:05:16;1.20;99.90
15241;DHT22;7723;52.170;9.978;2024-02-26T03:07:43;1.10;99.90
15241;DHT22;7723;52.170;9.978;2024-02-26T03:10:10;1.10;99.90
15241;DHT22;7723;52.170;9.978;2024-02-26T03:12:39;1.10;99.90
15241;DHT22;7723;52.170;9.978;2024-02-26T03:15:07;1.20;99.90
15241;DHT22;7723;52.170;9.978;2024-02-26T03:17:34;1.10;99.90
15241;DHT22;7723;52.170;9.978;2024-02-26T03:20:01;1.10;99.90
15241;DHT22;7723;52.170;9.978;2024-02-26T03:22:30;1.10;99.90
15241;DHT22;7723;52.170;9.978;2024-02-26T03:24:57;1.10;99.90
15241;DHT22;7723;52.170;9.978;2024-02-26T03:27:25;1.00;99.90
15241;DHT22;7723;52.170;9.978;2024-02-26T03:29:53;1.00;99.90
15241;DHT22;7723;52.170;9.978;2024-02-26T03:32:20;1.00;99.90
15241;DHT22;7723;52.170;9.978;2024-02-26T03:34:47;0.90;99.90
15241;DHT22;7723;52.170;9.978;2024-02-26T03:37:14;0.90;99.90
15241;DHT22;7723;52.170;9.978;2024-02-26T03:39:42;0.90;99.90
15241;DHT22;7723;52.170;9.978;2024-02-26T03:42:09;1.00;99.90
15241;DHT22;7723;52.170;9.978;2024-02-26T03:44:36;0.90;99.90
15241;DHT22;7723;52.170;9.978;2024-02-26T03:47:05;0.80;99.90
15241;DHT22;7723;52.170;9.978;2024-02-26T03:49:32;0.80;99.90
15241;DHT22;7723;52.170;9.978;2024-02-26T03:51:59;0.80;99.90
15241;DHT22;7723;52.170;9.978;2024-02-26T03:54:26;0.80;99.90
15241;DHT22;7723;52.170;9.978;2024-02-26T03:56:53;1.00;99.90
15241;DHT22;7723;52.170;9.978;2024-02-26T03:59:20;1.10;99.90
15241;DHT22;7723;52.170;9.978;2024-02-26T04:01:49;1.30;99.90
15241;DHT22;7723;52.170;9.978;2024-02-26T04:04:18;1.40;99.90
15241;DHT22;7723;52.170;9.978;2024-02-26T04:06:45;1.40;99.90
15241;DHT22;7723;52.170;9.978;2024-02-26T04:09:13;1.50;99.90
15241;DHT22;7723;52.170;9.978;2024-02-26T04:11:41;1.50;99.90
15241;DHT22;7723;52.170;9.978;2024-02-26T04:14:09;1.60;99.90
15241;DHT22;7723;52.170;9.978;2024-02-26T04:16:38;1.70;99.90
15241;DHT22;7723;52.170;9.978;2024-02-26T04:19:05;1.70;99.90
15241;DHT22;7723;52.170;9.978;2024-02-26T04:21:34;1.70;99.90
15241;DHT22;7723;52.170;9.978;2024-02-26T04:24:01;1.80;99.90
15241;DHT22;7723;52.170;9.978;2024-02-26T04:26:30;1.80;99.90
15241;DHT22;7723;52.170;9.978;2024-02-26T04:28:57;1.80;99.90
15241;DHT22;7723;52.170;9.978;2024-02-26T04:31:24;1.80;99.90
15241;DHT22;7723;52.170;9.978;2024-02-26T04:33:51;1.80;99.90
15241;DHT22;7723;52.170;9.978;2024-02-26T04:36:19;1.80;99.90
15241;DHT22;7723;52.170;9.978;2024-02-26T04:38:47;1.80;99.90
15241;DHT22;7723;52.170;9.978;2024-02-26T04:41:14;1.80;99.90
15241;DHT22;7723;52.170;9.978;2024-02-26T04:43:41;1.80;99.90
15241;DHT22;7723;52.170;9.978;2024-02-26T04:46:08;1.80;99.90
15241;DHT22;7723;52.170;9.978;2024-02-26T04:48:36;1.80;99.90
15241;DHT22;7723;52.170;9.978;2024-02-26T04:51:04;1.80;99.90
15241;DHT22;7723;52.170;9.978;2024-02-26T04:53:31;1.80;99.90
15241;DHT22;7723;52.170;9.978;2024-02-26T04:56:00;1.80;99.90
15241;DHT22;7723;52.170;9.978;2024-02-26T04:58:27;1.80;99.90
15241;DHT22;7723;52.170;9.978;2024-02-26T05:00:54;1.80;99.90
15241;DHT22;7723;52.170;9.978;2024-02-26T05:03:21;1.80;99.90
15241;DHT22;7723;52.170;9.978;2024-02-26T05:05:48;1.80;99.90
15241;DHT22;7723;52.170;9.978;2024-02-26T05:08:15;1.80;99.90
15241;DHT22;7723;52.170;9.978;2024-02-26T05:10:44;1.90;99.90
15241;DHT22;7723;52.170;9.978;2024-02-26T05:13:13;1.80;99.90
15241;DHT22;7723;52.170;9.978;2024-02-26T05:15:41;1.90;99.90
15241;DHT22;7723;52.170;9.978;2024-02-26T05:18:09;1.90;99.90
15241;DHT22;7723;52.170;9.978;2024-02-26T05:20:36;1.90;99.90
15241;DHT22;7723;52.170;9.978;2024-02-26T05:23:03;1.90;99.90
15241;DHT22;7723;52.170;9.978;2024-02-26T05:25:30;1.90;99.90
15241;DHT22;7723;52.170;9.978;2024-02-26T05:27:58;2.00;99.90
15241;DHT22;7723;52.170;9.978;2024-02-26T05:30:26;2.10;99.90
15241;DHT22;7723;52.170;9.978;2024-02-26T05:32:54;2.00;99.90
15241;DHT22;7723;52.170;9.978;2024-02-26T05:35:21;2.10;99.90
15241;DHT22;7723;52.170;9.978;2024-02-26T05:37:48;2.10;99.90
15241;DHT22;7723;52.170;9.978;2024-02-26T05:40:15;2.10;99.90
15241;DHT22;7723;52.170;9.978;2024-02-26T05:42:42;2.10;99.90
15241;DHT22;7723;52.170;9.978;2024-02-26T05:45:10;2.10;99.90
15241;DHT22;7723;52.170;9.978;2024-02-26T05:47:39;2.10;99.90
15241;DHT22;7723;52.170;9.978;2024-02-26T05:50:09;2.10;99.90
15241;DHT22;7723;52.170;9.978;2024-02-26T05:52:36;2.10;99.90
15241;DHT22;7723;52.170;9.978;2024-02-26T05:55:05;2.20;99.90
15241;DHT22;7723;52.170;9.978;2024-02-26T05:57:33;2.20;99.90
15241;DHT22;7723;52.170;9.978;2024-02-26T06:00:00;2.20;99.90
15241;DHT22;7723;52.170;9.978;2024-02-26T06:02:29;2.20;99.90
15241;DHT22;7723;52.170;9.978;2024-02-26T06:04:58;2.20;99.90
15241;DHT22;7723;52.170;9.978;2024-02-26T06:07:25;2.20;99.90
15241;DHT22;7723;52.170;9.978;2024-02-26T06:09:52;2.20;99.90
15241;DHT22;7723;52.170;9.978;2024-02-26T06:12:19;2.20;99.90
15241;DHT22;7723;52.170;9.978;2024-02-26T06:14:47;2.20;99.90
15241;DHT22;7723;52.170;9.978;2024-02-26T06:17:14;2.20;99.90
15241;DHT22;7723;52.170;9.978;2024-02-26T06:19:41;2.30;99.90
15241;DHT22;7723;52.170;9.978;2024-02-26T06:22:09;2.30;99.90
15241;DHT22;7723;52.170;9.978;2024-02-26T06:24:36;2.30;99.90
15241;DHT22;7723;52.170;9.978;2024-02-26T06:27:04;2.30;99.90
15241;DHT22;7723;52.170;9.978;2024-02-26T06:29:31;2.30;99.90
15241;DHT22;7723;52.170;9.978;2024-02-26T06:31:58;2.30;99.90
15241;DHT22;7723;52.170;9.978;2024-02-26T06:34:25;2.30;99.90
15241;DHT22;7723;52.170;9.978;2024-02-26T06:36:52;2.40;99.90
15241;DHT22;7723;52.170;9.978;2024-02-26T06:39:20;2.40;99.90
15241;DHT22;7723;52.170;9.978;2024-02-26T06:41:47;2.50;99.90
15241;DHT22;7723;52.170;9.978;2024-02-26T06:44:15;2.50;99.90
15241;DHT22;7723;52.170;9.978;2024-02-26T06:46:43;2.60;99.90
15241;DHT22;7723;52.170;9.978;2024-02-26T06:49:10;2.60;99.90
15241;DHT22;7723;52.170;9.978;2024-02-26T06:51:37;2.70;99.90
15241;DHT22;7723;52.170;9.978;2024-02-26T06:54:04;2.70;99.90
15241;DHT22;7723;52.170;9.978;2024-02-26T06:56:32;2.70;99.90
15241;DHT22;7723;52.170;9.978;2024-02-26T06:58:59;2.70;99.90
15241;DHT22;7723;52.170;9.978;2024-02-26T07:01:26;2.80;99.90
15241;DHT22;7723;52.170;9.978;2024-02-26T07:03:54;2.70;99.90
15241;DHT22;7723;52.170;9.978;2024-02-26T07:06:21;2.80;99.90
15241;DHT22;7723;52.170;9.978;2024-02-26T07:08:48;2.80;99.90
15241;DHT22;7723;52.170;9.978;2024-02-26T07:11:15;2.80;99.90
15241;DHT22;7723;52.170;9.978;2024-02-26T07:13:43;2.90;99.90
15241;DHT22;7723;52.170;9.978;2024-02-26T07:16:10;2.90;99.90
15241;DHT22;7723;52.170;9.978;2024-02-26T07:18:38;3.00;99.90
15241;DHT22;7723;52.170;9.978;2024-02-26T07:21:05;3.00;99.90
15241;DHT22;7723;52.170;9.978;2024-02-26T07:23:32;3.10;99.90
15241;DHT22;7723;52.170;9.978;2024-02-26T07:26:00;3.10;99.90
15241;DHT22;7723;52.170;9.978;2024-02-26T07:28:27;3.20;99.90
15241;DHT22;7723;52.170;9.978;2024-02-26T07:30:55;3.30;99.90
15241;DHT22;7723;52.170;9.978;2024-02-26T07:33:22;3.30;99.90
15241;DHT22;7723;52.170;9.978;2024-02-26T07:35:49;3.30;99.90
15241;DHT22;7723;52.170;9.978;2024-02-26T07:38:18;3.30;99.90
15241;DHT22;7723;52.170;9.978;2024-02-26T07:40:45;3.40;99.90
15241;DHT22;7723;52.170;9.978;2024-02-26T07:43:12;3.50;99.90
15241;DHT22;7723;52.170;9.978;2024-02-26T07:45:39;3.60;99.90
15241;DHT22;7723;52.170;9.978;2024-02-26T07:48:08;3.80;99.90
15241;DHT22;7723;52.170;9.978;2024-02-26T07:50:35;3.90;99.90
15241;DHT22;7723;52.170;9.978;2024-02-26T07:53:02;4.00;99.90
15241;DHT22;7723;52.170;9.978;2024-02-26T07:55:29;4.00;99.90
15241;DHT22;7723;52.170;9.978;2024-02-26T07:57:56;4.10;99.90
15241;DHT22;7723;52.170;9.978;2024-02-26T08:00:23;4.20;99.90
15241;DHT22;7723;52.170;9.978;2024-02-26T08:02:51;4.20;99.90
15241;DHT22;7723;52.170;9.978;2024-02-26T08:05:19;4.20;99.90
15241;DHT22;7723;52.170;9.978;2024-02-26T08:07:46;4.20;99.90
15241;DHT22;7723;52.170;9.978;2024-02-26T08:10:14;4.20;99.90
15241;DHT22;7723;52.170;9.978;2024-02-26T08:12:41;4.20;99.90
15241;DHT22;7723;52.170;9.978;2024-02-26T08:15:08;4.20;99.90
15241;DHT22;7723;52.170;9.978;2024-02-26T08:17:37;4.30;99.90
15241;DHT22;7723;52.170;9.978;2024-02-26T08:20:05;4.30;99.90
15241;DHT22;7723;52.170;9.978;2024-02-26T08:22:33;4.30;99.90
15241;DHT22;7723;52.170;9.978;2024-02-26T08:25:00;4.40;99.90
15241;DHT22;7723;52.170;9.978;2024-02-26T08:27:32;4.40;99.90
15241;DHT22;7723;52.170;9.978;2024-02-26T08:29:59;4.40;99.90
15241;DHT22;7723;52.170;9.978;2024-02-26T08:32:27;4.30;99.90
15241;DHT22;7723;52.170;9.978;2024-02-26T08:34:54;4.30;99.90
15241;DHT22;7723;52.170;9.978;2024-02-26T08:37:21;4.30;99.90
15241;DHT22;7723;52.170;9.978;2024-02-26T08:39:50;4.40;99.90
15241;DHT22;7723;52.170;9.978;2024-02-26T08:42:17;4.40;99.90
15241;DHT22;7723;52.170;9.978;2024-02-26T08:44:44;4.40;99.90
15241;DHT22;7723;52.170;9.978;2024-02-26T08:47:11;4.40;99.90
15241;DHT22;7723;52.170;9.978;2024-02-26T08:49:42;4.40;99.90
15241;DHT22;7723;52.170;9.978;2024-02-26T08:52:10;4.50;99.90
15241;DHT22;7723;52.170;9.978;2024-02-26T08:54:36;4.60;99.90
15241;DHT22;7723;52.170;9.978;2024-02-26T08:57:04;4.70;99.90
15241;DHT22;7723;52.170;9.978;2024-02-26T08:59:32;4.80;99.90
15241;DHT22;7723;52.170;9.978;2024-02-26T09:01:59;4.70;99.90
15241;DHT22;7723;52.170;9.978;2024-02-26T09:04:26;4.90;99.90
15241;DHT22;7723;52.170;9.978;2024-02-26T09:06:53;4.80;99.90
15241;DHT22;7723;52.170;9.978;2024-02-26T09:09:21;5.00;99.90
15241;DHT22;7723;52.170;9.978;2024-02-26T09:11:50;5.10;99.90
15241;DHT22;7723;52.170;9.978;2024-02-26T09:14:19;5.10;99.90
15241;DHT22;7723;52.170;9.978;2024-02-26T09:16:47;5.10;99.90
15241;DHT22;7723;52.170;9.978;2024-02-26T09:19:15;5.20;99.90
15241;DHT22;7723;52.170;9.978;2024-02-26T09:21:43;5.20;99.90
15241;DHT22;7723;52.170;9.978;2024-02-26T09:24:10;5.40;99.90
15241;DHT22;7723;52.170;9.978;2024-02-26T09:26:37;5.50;99.90
15241;DHT22;7723;52.170;9.978;2024-02-26T09:29:05;5.30;99.90
15241;DHT22;7723;52.170;9.978;2024-02-26T09:31:35;5.40;99.90
15241;DHT22;7723;52.170;9.978;2024-02-26T09:34:02;5.50;99.90
15241;DHT22;7723;52.170;9.978;2024-02-26T09:36:30;5.60;99.90
15241;DHT22;7723;52.170;9.978;2024-02-26T09:38:57;5.70;99.90
15241;DHT22;7723;52.170;9.978;2024-02-26T09:41:28;5.70;99.90
15241;DHT22;7723;52.170;9.978;2024-02-26T09:43:56;5.70;99.90
15241;DHT22;7723;52.170;9.978;2024-02-26T09:46:25;5.70;99.90
15241;DHT22;7723;52.170;9.978;2024-02-26T09:48:54;5.80;99.90
15241;DHT22;7723;52.170;9.978;2024-02-26T09:51:23;5.90;99.90
15241;DHT22;7723;52.170;9.978;2024-02-26T09:53:52;6.00;99.90
15241;DHT22;7723;52.170;9.978;2024-02-26T09:56:19;5.80;99.90
15241;DHT22;7723;52.170;9.978;2024-02-26T09:58:48;5.80;99.90
15241;DHT22;7723;52.170;9.978;2024-02-26T10:01:20;6.00;99.90
15241;DHT22;7723;52.170;9.978;2024-02-26T10:03:54;6.10;99.90
15241;DHT22;7723;52.170;9.978;2024-02-26T10:06:22;6.20;99.90
15241;DHT22;7723;52.170;9.978;2024-02-26T10:08:49;6.20;99.90
15241;DHT22;7723;52.170;9.978;2024-02-26T10:11:17;6.10;99.90
15241;DHT22;7723;52.170;9.978;2024-02-26T10:13:44;6.10;99.90
15241;DHT22;7723;52.170;9.978;2024-02-26T10:16:11;6.20;99.90
15241;DHT22;7723;52.170;9.978;2024-02-26T10:18:48;6.20;99.90
15241;DHT22;7723;52.170;9.978;2024-02-26T10:21:18;6.30;99.90
15241;DHT22;7723;52.170;9.978;2024-02-26T10:23:45;6.30;99.90
15241;DHT22;7723;52.170;9.978;2024-02-26T10:26:13;6.30;99.90
15241;DHT22;7723;52.170;9.978;2024-02-26T10:28:42;6.30;99.90
15241;DHT22;7723;52.170;9.978;2024-02-26T10:31:09;6.40;99.90
15241;DHT22;7723;52.170;9.978;2024-02-26T10:33:38;6.40;99.90
15241;DHT22;7723;52.170;9.978;2024-02-26T10:36:06;6.50;99.90
15241;DHT22;7723;52.170;9.978;2024-02-26T10:38:35;6.50;39.20
15241;DHT22;7723;52.170;9.978;2024-02-26T10:41:03;6.50;45.90
15241;DHT22;7723;52.170;9.978;2024-02-26T10:43:30;6.50;68.30
15241;DHT22;7723;52.170;9.978;2024-02-26T10:45:57;6.50;1.00
15241;DHT22;7723;52.170;9.978;2024-02-26T10:48:24;6.50;1.00
15241;DHT22;7723;52.170;9.978;2024-02-26T10:50:51;6.40;1.00
15241;DHT22;7723;52.170;9.978;2024-02-26T10:53:21;6.40;39.10
15241;DHT22;7723;52.170;9.978;2024-02-26T10:55:54;6.40;53.90
15241;DHT22;7723;52.170;9.978;2024-02-26T10:58:22;6.40;35.60
15241;DHT22;7723;52.170;9.978;2024-02-26T11:00:51;6.50;1.00
15241;DHT22;7723;52.170;9.978;2024-02-26T11:03:18;6.50;1.00
15241;DHT22;7723;52.170;9.978;2024-02-26T11:05:47;6.70;1.00
15241;DHT22;7723;52.170;9.978;2024-02-26T11:08:16;6.70;1.00
15241;DHT22;7723;52.170;9.978;2024-02-26T11:10:47;6.90;1.00
15241;DHT22;7723;52.170;9.978;2024-02-26T11:13:18;6.90;1.00
15241;DHT22;7723;52.170;9.978;2024-02-26T11:15:46;7.10;1.00
15241;DHT22;7723;52.170;9.978;2024-02-26T11:18:15;7.10;1.00
15241;DHT22;7723;52.170;9.978;2024-02-26T11:20:43;7.10;1.00
15241;DHT22;7723;52.170;9.978;2024-02-26T11:23:11;7.20;99.90
15241;DHT22;7723;52.170;9.978;2024-02-26T11:25:38;7.10;99.90
15241;DHT22;7723;52.170;9.978;2024-02-26T11:28:08;7.20;99.90
15241;DHT22;7723;52.170;9.978;2024-02-26T11:30:42;7.10;99.90
15241;DHT22;7723;52.170;9.978;2024-02-26T11:33:10;7.00;99.90
15241;DHT22;7723;52.170;9.978;2024-02-26T11:35:38;7.00;1.00
15241;DHT22;7723;52.170;9.978;2024-02-26T11:38:06;7.20;23.20
15241;DHT22;7723;52.170;9.978;2024-02-26T11:40:37;7.30;1.00
15241;DHT22;7723;52.170;9.978;2024-02-26T11:43:05;7.30;99.90
15241;DHT22;7723;52.170;9.978;2024-02-26T11:45:50;7.30;1.00
15241;DHT22;7723;52.170;9.978;2024-02-26T11:48:21;7.40;1.00
15241;DHT22;7723;52.170;9.978;2024-02-26T11:50:50;7.40;99.90
15241;DHT22;7723;52.170;9.978;2024-02-26T11:53:22;7.40;1.00
15241;DHT22;7723;52.170;9.978;2024-02-26T11:56:20;7.40;1.00
15241;DHT22;7723;52.170;9.978;2024-02-26T11:58:48;7.60;99.90
15241;DHT22;7723;52.170;9.978;2024-02-26T12:01:43;7.60;99.90
15241;DHT22;7723;52.170;9.978;2024-02-26T12:04:16;7.60;99.90
15241;DHT22;7723;52.170;9.978;2024-02-26T12:06:46;7.70;1.00
15241;DHT22;7723;52.170;9.978;2024-02-26T12:09:17;7.60;79.30
15241;DHT22;7723;52.170;9.978;2024-02-26T12:11:57;7.60;1.00
15241;DHT22;7723;52.170;9.978;2024-02-26T12:14:25;7.50;1.00
15241;DHT22;7723;52.170;9.978;2024-02-26T12:16:55;7.60;34.50
15241;DHT22;7723;52.170;9.978;2024-02-26T12:19:24;7.60;99.90
15241;DHT22;7723;52.170;9.978;2024-02-26T12:21:52;7.80;97.70
15241;DHT22;7723;52.170;9.978;2024-02-26T12:24:21;8.00;99.90
15241;DHT22;7723;52.170;9.978;2024-02-26T12:26:48;7.90;1.00
15241;DHT22;7723;52.170;9.978;2024-02-26T12:29:16;8.00;99.90
15241;DHT22;7723;52.170;9.978;2024-02-26T12:31:43;8.00;1.00
15241;DHT22;7723;52.170;9.978;2024-02-26T12:34:12;7.90;1.00
15241;DHT22;7723;52.170;9.978;2024-02-26T12:36:39;8.10;1.00
15241;DHT22;7723;52.170;9.978;2024-02-26T12:39:06;8.20;1.00
15241;DHT22;7723;52.170;9.978;2024-02-26T12:41:35;8.30;90.90
15241;DHT22;7723;52.170;9.978;2024-02-26T12:44:02;8.40;1.00
15241;DHT22;7723;52.170;9.978;2024-02-26T12:46:29;8.40;1.00
15241;DHT22;7723;52.170;9.978;2024-02-26T12:48:58;8.40;1.00
15241;DHT22;7723;52.170;9.978;2024-02-26T12:51:27;8.40;99.90
15241;DHT22;7723;52.170;9.978;2024-02-26T12:53:55;8.40;1.00
15241;DHT22;7723;52.170;9.978;2024-02-26T12:56:23;8.20;1.00
15241;DHT22;7723;52.170;9.978;2024-02-26T12:58:50;8.30;1.00
15241;DHT22;7723;52.170;9.978;2024-02-26T13:01:21;8.30;1.00
15241;DHT22;7723;52.170;9.978;2024-02-26T13:03:49;8.30;1.00
15241;DHT22;7723;52.170;9.978;2024-02-26T13:06:17;8.50;1.00
15241;DHT22;7723;52.170;9.978;2024-02-26T13:08:46;8.50;1.00
15241;DHT22;7723;52.170;9.978;2024-02-26T13:11:14;8.70;99.90
15241;DHT22;7723;52.170;9.978;2024-02-26T13:13:41;8.50;1.00
15241;DHT22;7723;52.170;9.978;2024-02-26T13:16:10;8.60;99.90
15241;DHT22;7723;52.170;9.978;2024-02-26T13:18:41;8.70;99.90
15241;DHT22;7723;52.170;9.978;2024-02-26T13:21:09;8.50;99.90
15241;DHT22;7723;52.170;9.978;2024-02-26T13:23:37;8.60;99.90
15241;DHT22;7723;52.170;9.978;2024-02-26T13:26:06;8.60;99.90
15241;DHT22;7723;52.170;9.978;2024-02-26T13:28:34;8.60;1.00
15241;DHT22;7723;52.170;9.978;2024-02-26T13:31:01;8.50;99.90
15241;DHT22;7723;52.170;9.978;2024-02-26T13:33:31;8.40;99.90
15241;DHT22;7723;52.170;9.978;2024-02-26T13:35:59;8.50;99.90
15241;DHT22;7723;52.170;9.978;2024-02-26T13:38:27;8.30;99.90
15241;DHT22;7723;52.170;9.978;2024-02-26T13:40:55;8.30;1.00
15241;DHT22;7723;52.170;9.978;2024-02-26T13:43:23;8.20;1.00
15241;DHT22;7723;52.170;9.978;2024-02-26T13:45:51;8.20;99.90
15241;DHT22;7723;52.170;9.978;2024-02-26T13:48:18;8.20;1.00
15241;DHT22;7723;52.170;9.978;2024-02-26T13:50:45;8.20;1.00
15241;DHT22;7723;52.170;9.978;2024-02-26T13:53:12;8.10;1.00
15241;DHT22;7723;52.170;9.978;2024-02-26T13:55:40;8.00;1.00
15241;DHT22;7723;52.170;9.978;2024-02-26T13:58:11;7.90;1.00
15241;DHT22;7723;52.170;9.978;2024-02-26T14:00:41;7.90;1.00
15241;DHT22;7723;52.170;9.978;2024-02-26T14:03:08;7.90;1.00
15241;DHT22;7723;52.170;9.978;2024-02-26T14:05:35;7.90;99.90
15241;DHT22;7723;52.170;9.978;2024-02-26T14:08:02;7.80;1.00
15241;DHT22;7723;52.170;9.978;2024-02-26T14:10:29;7.90;1.00
15241;DHT22;7723;52.170;9.978;2024-02-26T14:12:57;7.90;1.00
15241;DHT22;7723;52.170;9.978;2024-02-26T14:15:24;7.80;1.00
15241;DHT22;7723;52.170;9.978;2024-02-26T14:17:53;7.80;1.00
15241;DHT22;7723;52.170;9.978;2024-02-26T14:20:22;7.80;29.70
15241;DHT22;7723;52.170;9.978;2024-02-26T14:22:50;7.80;99.90
15241;DHT22;7723;52.170;9.978;2024-02-26T14:25:19;7.70;99.90
15241;DHT22;7723;52.170;9.978;2024-02-26T14:27:46;7.80;1.00
15241;DHT22;7723;52.170;9.978;2024-02-26T14:30:14;7.80;1.00
15241;DHT22;7723;52.170;9.978;2024-02-26T14:32:41;7.80;1.00
15241;DHT22;7723;52.170;9.978;2024-02-26T14:35:11;7.80;1.00
15241;DHT22;7723;52.170;9.978;2024-02-26T14:37:38;7.80;1.00
15241;DHT22;7723;52.170;9.978;2024-02-26T14:40:06;7.80;1.00
15241;DHT22;7723;52.170;9.978;2024-02-26T14:42:34;7.90;1.00
15241;DHT22;7723;52.170;9.978;2024-02-26T14:45:01;7.80;1.00
15241;DHT22;7723;52.170;9.978;2024-02-26T14:47:28;7.80;34.40
15241;DHT22;7723;52.170;9.978;2024-02-26T14:49:55;7.70;99.90
15241;DHT22;7723;52.170;9.978;2024-02-26T14:52:23;7.70;99.90
15241;DHT22;7723;52.170;9.978;2024-02-26T14:54:50;7.70;99.90
15241;DHT22;7723;52.170;9.978;2024-02-26T14:57:19;7.70;99.90
15241;DHT22;7723;52.170;9.978;2024-02-26T14:59:46;7.70;1.00
15241;DHT22;7723;52.170;9.978;2024-02-26T15:02:14;7.80;99.90
15241;DHT22;7723;52.170;9.978;2024-02-26T15:04:41;7.70;99.90
15241;DHT22;7723;52.170;9.978;2024-02-26T15:07:08;7.70;99.90
15241;DHT22;7723;52.170;9.978;2024-02-26T15:09:37;7.80;99.90
15241;DHT22;7723;52.170;9.978;2024-02-26T15:12:06;7.80;99.90
15241;DHT22;7723;52.170;9.978;2024-02-26T15:14:33;7.70;99.90
15241;DHT22;7723;52.170;9.978;2024-02-26T15:17:00;7.70;18.10
15241;DHT22;7723;52.170;9.978;2024-02-26T15:19:28;7.70;99.90
15241;DHT22;7723;52.170;9.978;2024-02-26T15:21:55;7.70;99.90
15241;DHT22;7723;52.170;9.978;2024-02-26T15:24:22;7.70;99.90
15241;DHT22;7723;52.170;9.978;2024-02-26T15:26:52;7.70;99.90
15241;DHT22;7723;52.170;9.978;2024-02-26T15:29:21;7.70;99.90
15241;DHT22;7723;52.170;9.978;2024-02-26T15:31:49;7.70;99.90
15241;DHT22;7723;52.170;9.978;2024-02-26T15:34:16;7.70;99.90
15241;DHT22;7723;52.170;9.978;2024-02-26T15:36:44;7.60;99.90
15241;DHT22;7723;52.170;9.978;2024-02-26T15:39:11;7.60;99.90
15241;DHT22;7723;52.170;9.978;2024-02-26T15:41:38;7.60;1.00
15241;DHT22;7723;52.170;9.978;2024-02-26T15:44:07;7.50;1.00
15241;DHT22;7723;52.170;9.978;2024-02-26T15:46:39;7.50;1.00
15241;DHT22;7723;52.170;9.978;2024-02-26T15:49:06;7.50;1.00
15241;DHT22;7723;52.170;9.978;2024-02-26T15:51:33;7.50;1.00
15241;DHT22;7723;52.170;9.978;2024-02-26T15:54:01;7.50;1.00
15241;DHT22;7723;52.170;9.978;2024-02-26T15:56:28;7.50;1.00
15241;DHT22;7723;52.170;9.978;2024-02-26T15:58:55;7.40;1.00
15241;DHT22;7723;52.170;9.978;2024-02-26T16:01:24;7.40;1.00
15241;DHT22;7723;52.170;9.978;2024-02-26T16:03:51;7.40;1.00
15241;DHT22;7723;52.170;9.978;2024-02-26T16:06:22;7.30;1.00
15241;DHT22;7723;52.170;9.978;2024-02-26T16:08:52;7.30;1.00